createdAt,value
2018-08-11T00:01:34.590Z,8.13
2018-08-11T00:04:03.119Z,8.63
2018-08-11T00:06:31.633Z,7.90
2018-08-11T00:09:00.173Z,8.17
2018-08-11T00:11:28.676Z,7.43
2018-08-11T00:13:58.320Z,6.90
2018-08-11T00:16:26.800Z,7.73
2018-08-11T00:18:55.373Z,7.60
2018-08-11T00:21:23.930Z,7.53
2018-08-11T00:23:53.077Z,8.07
2018-08-11T00:26:21.558Z,7.27
2018-08-11T00:28:50.140Z,7.10
2018-08-11T00:31:18.656Z,7.60
2018-08-11T00:33:47.261Z,7.07
2018-08-11T00:36:15.749Z,7.20
2018-08-11T00:38:44.254Z,8.27
2018-08-11T00:41:12.810Z,7.97
2018-08-11T00:43:41.335Z,7.73
2018-08-11T00:46:09.867Z,7.70
2018-08-11T00:48:38.431Z,7.43
2018-08-11T00:51:06.967Z,7.90
2018-08-11T00:53:35.582Z,8.17
2018-08-11T00:56:04.086Z,7.50
2018-08-11T00:58:32.737Z,7.70
2018-08-11T01:01:01.266Z,7.13
2018-08-11T01:03:29.755Z,6.90
2018-08-11T01:05:58.261Z,7.47
2018-08-11T01:08:26.764Z,7.23
2018-08-11T01:10:55.279Z,7.63
2018-08-11T01:13:23.798Z,7.27
2018-08-11T01:15:52.314Z,7.20
2018-08-11T01:18:20.818Z,6.83
2018-08-11T01:20:49.415Z,6.67
2018-08-11T01:23:18.010Z,7.10
2018-08-11T01:25:46.511Z,6.60
2018-08-11T01:28:15.075Z,7.70
2018-08-11T01:30:43.622Z,7.27
2018-08-11T01:33:12.148Z,6.97
2018-08-11T01:35:40.697Z,6.97
2018-08-11T01:38:09.857Z,7.00
2018-08-11T01:40:38.734Z,6.97
2018-08-11T01:43:07.309Z,6.70
2018-08-11T01:45:36.096Z,7.07
2018-08-11T01:48:04.726Z,7.73
2018-08-11T01:50:33.249Z,7.50
2018-08-11T01:53:01.726Z,7.27
2018-08-11T01:55:30.241Z,6.37
2018-08-11T01:57:58.702Z,6.63
2018-08-11T02:00:27.280Z,6.70
2018-08-11T02:02:55.736Z,7.53
2018-08-11T02:05:24.277Z,7.37
2018-08-11T02:07:52.762Z,6.97
2018-08-11T02:10:21.717Z,6.70
2018-08-11T02:12:50.205Z,6.67
2018-08-11T02:15:18.977Z,5.60
2018-08-11T02:17:47.550Z,5.17
2018-08-11T02:20:18.323Z,5.20
2018-08-11T02:22:47.892Z,5.07
2018-08-11T02:25:16.385Z,5.00
2018-08-11T02:27:44.917Z,4.83
2018-08-11T02:30:15.332Z,5.00
2018-08-11T02:32:43.902Z,4.60
2018-08-11T02:35:13.074Z,4.63
2018-08-11T02:37:42.438Z,4.67
2018-08-11T02:40:12.666Z,4.93
2018-08-11T02:42:41.157Z,4.83
2018-08-11T02:45:11.486Z,4.70
2018-08-11T02:47:40.064Z,4.70
2018-08-11T02:50:10.326Z,4.80
2018-08-11T02:52:39.484Z,4.63
2018-08-11T02:55:08.051Z,4.57
2018-08-11T02:57:36.513Z,5.13
2018-08-11T03:00:06.961Z,5.67
2018-08-11T03:02:35.570Z,5.50
2018-08-11T03:05:04.142Z,5.73
2018-08-11T03:07:32.649Z,5.53
2018-08-11T03:10:01.162Z,5.27
2018-08-11T03:12:29.657Z,7.27
2018-08-11T03:14:58.160Z,7.10
2018-08-11T03:17:26.642Z,7.07
2018-08-11T03:19:55.135Z,7.70
2018-08-11T03:22:23.636Z,7.70
2018-08-11T03:24:52.121Z,7.23
2018-08-11T03:27:20.606Z,7.20
2018-08-11T03:29:49.077Z,7.10
2018-08-11T03:32:17.560Z,7.57
2018-08-11T03:34:46.057Z,6.17
2018-08-11T03:37:34.602Z,6.87
2018-08-11T03:40:03.326Z,6.33
2018-08-11T03:42:31.795Z,6.60
2018-08-11T03:45:00.272Z,6.67
2018-08-11T03:47:28.811Z,6.90
2018-08-11T03:49:57.273Z,6.83
2018-08-11T03:52:26.320Z,6.37
2018-08-11T03:54:54.750Z,5.90
2018-08-11T03:57:23.261Z,5.60
2018-08-11T03:59:51.750Z,5.83
2018-08-11T04:02:20.274Z,5.20
2018-08-11T04:04:48.721Z,5.43
2018-08-11T04:07:17.208Z,4.80
2018-08-11T04:09:45.674Z,5.77
2018-08-11T04:12:14.219Z,5.40
2018-08-11T04:14:45.882Z,5.13
2018-08-11T04:17:14.417Z,5.17
2018-08-11T04:19:42.904Z,4.83
2018-08-11T04:22:11.488Z,4.73
2018-08-11T04:24:39.992Z,5.10
2018-08-11T04:27:08.577Z,4.50
2018-08-11T04:29:37.039Z,4.43
2018-08-11T04:32:05.555Z,4.70
2018-08-11T04:34:34.031Z,4.00
2018-08-11T04:37:02.702Z,4.27
2018-08-11T04:39:31.158Z,3.90
2018-08-11T04:41:59.723Z,3.97
2018-08-11T04:44:28.281Z,3.43
2018-08-11T04:46:56.782Z,2.80
2018-08-11T04:49:25.325Z,2.87
2018-08-11T04:51:53.814Z,2.60
2018-08-11T04:54:22.298Z,2.57
2018-08-11T04:56:50.800Z,2.70
2018-08-11T04:59:19.245Z,3.00
2018-08-11T05:01:47.762Z,2.87
2018-08-11T05:04:16.226Z,2.50
2018-08-11T05:06:44.706Z,2.60
2018-08-11T05:09:13.154Z,2.60
2018-08-11T05:11:41.633Z,2.20
2018-08-11T05:14:10.114Z,2.00
2018-08-11T05:16:38.617Z,2.10
2018-08-11T05:19:07.218Z,2.20
2018-08-11T05:21:35.711Z,2.27
2018-08-11T05:24:04.190Z,2.40
2018-08-11T05:26:32.788Z,2.40
2018-08-11T05:29:01.501Z,2.20
2018-08-11T05:31:30.183Z,2.30
2018-08-11T05:33:58.750Z,2.20
2018-08-11T05:36:27.302Z,2.40
2018-08-11T05:38:55.818Z,2.23
2018-08-11T05:41:24.329Z,2.10
2018-08-11T05:43:52.841Z,2.40
2018-08-11T05:46:21.401Z,2.40
2018-08-11T05:48:49.879Z,2.53
2018-08-11T05:51:18.343Z,2.30
2018-08-11T05:53:46.841Z,2.30
2018-08-11T05:56:15.313Z,2.50
2018-08-11T05:58:43.842Z,2.50
2018-08-11T06:01:12.322Z,2.80
2018-08-11T06:03:40.839Z,2.60
2018-08-11T06:06:09.298Z,3.00
2018-08-11T06:08:37.788Z,3.30
2018-08-11T06:11:06.626Z,4.43
2018-08-11T06:13:35.106Z,4.90
2018-08-11T06:16:03.617Z,5.00
2018-08-11T06:18:32.265Z,4.97
2018-08-11T06:21:00.862Z,5.13
2018-08-11T06:23:29.384Z,6.90
2018-08-11T06:25:57.871Z,7.50
2018-08-11T06:28:26.399Z,7.40
2018-08-11T06:30:55.007Z,7.30
2018-08-11T06:33:23.507Z,7.30
2018-08-11T06:35:51.979Z,7.90
2018-08-11T06:38:20.492Z,9.33
2018-08-11T06:40:49.138Z,9.77
2018-08-11T06:43:17.534Z,10.70
2018-08-11T06:45:46.039Z,10.20
2018-08-11T06:48:14.506Z,10.00
2018-08-11T06:50:42.952Z,9.67
2018-08-11T06:53:11.414Z,8.63
2018-08-11T06:55:40.714Z,9.00
2018-08-11T06:58:09.202Z,9.67
2018-08-11T07:00:37.644Z,9.43
2018-08-11T07:03:06.141Z,9.27
2018-08-11T07:05:34.618Z,8.80
2018-08-11T07:08:03.130Z,9.37
2018-08-11T07:10:31.610Z,8.77
2018-08-11T07:13:00.110Z,9.03
2018-08-11T07:15:28.591Z,8.80
2018-08-11T07:17:57.070Z,8.17
2018-08-11T07:20:25.628Z,8.07
2018-08-11T07:22:54.307Z,7.23
2018-08-11T07:25:22.789Z,7.20
2018-08-11T07:27:51.566Z,7.33
2018-08-11T07:30:20.265Z,7.30
2018-08-11T07:32:48.745Z,6.77
2018-08-11T07:35:17.250Z,7.03
2018-08-11T07:37:46.252Z,6.27
2018-08-11T07:40:14.773Z,5.80
2018-08-11T07:42:43.330Z,5.70
2018-08-11T07:45:11.839Z,5.40
2018-08-11T07:47:40.354Z,6.10
2018-08-11T07:50:08.858Z,6.33
2018-08-11T07:52:37.310Z,6.62
2018-08-11T07:55:06.053Z,6.97
2018-08-11T07:57:34.525Z,6.22
2018-08-11T08:00:03.105Z,6.30
2018-08-11T08:02:31.622Z,7.83
2018-08-11T08:05:00.153Z,6.95
2018-08-11T08:07:28.634Z,6.42
2018-08-11T08:09:57.209Z,7.55
2018-08-11T08:12:25.789Z,6.75
2018-08-11T08:14:54.316Z,7.50
2018-08-11T08:17:22.830Z,6.40
2018-08-11T08:19:51.390Z,6.97
2018-08-11T08:22:19.895Z,7.62
2018-08-11T08:24:48.410Z,8.05
2018-08-11T08:27:16.905Z,7.15
2018-08-11T08:29:45.421Z,8.20
2018-08-11T08:32:13.975Z,7.65
2018-08-11T08:34:42.519Z,6.90
2018-08-11T08:37:11.005Z,7.62
2018-08-11T08:39:39.578Z,7.65
2018-08-11T08:42:08.325Z,6.45
2018-08-11T08:44:36.872Z,8.10
2018-08-11T08:56:16.076Z,6.40
2018-08-11T08:58:44.660Z,7.33
2018-08-11T09:01:13.145Z,6.62
2018-08-11T09:03:41.984Z,7.17
2018-08-11T09:06:10.544Z,7.30
2018-08-11T09:08:39.134Z,6.53
2018-08-11T09:11:07.815Z,7.05
2018-08-11T09:13:36.343Z,6.78
2018-08-11T09:16:04.885Z,6.20
2018-08-11T09:18:33.559Z,6.62
2018-08-11T09:21:04.912Z,6.40
2018-08-11T09:23:34.197Z,6.08
2018-08-11T09:26:02.843Z,6.37
2018-08-11T09:28:31.351Z,6.15
2018-08-11T09:31:00.007Z,4.83
2018-08-11T09:33:28.484Z,6.22
2018-08-11T09:35:57.022Z,7.12
2018-08-11T09:38:25.722Z,7.45
2018-08-11T09:40:56.366Z,6.80
2018-08-11T09:43:24.952Z,5.45
2018-08-11T09:45:53.517Z,4.90
2018-08-11T09:48:22.052Z,5.72
2018-08-11T09:50:50.643Z,5.47
2018-08-11T09:53:19.136Z,5.85
2018-08-11T09:55:47.756Z,6.92
2018-08-11T09:58:16.282Z,5.92
2018-08-11T10:00:53.891Z,6.10
2018-08-11T10:03:22.842Z,5.97
2018-08-11T10:05:51.482Z,6.03
2018-08-11T10:08:20.057Z,7.03
2018-08-11T10:10:50.342Z,6.80
2018-08-11T10:13:19.574Z,6.40
2018-08-11T10:15:48.351Z,6.53
2018-08-11T10:18:16.861Z,7.33
2018-08-11T10:20:45.579Z,6.75
2018-08-11T10:23:14.231Z,7.00
2018-08-11T10:25:42.810Z,6.15
2018-08-11T10:28:12.250Z,7.28
2018-08-11T10:30:40.788Z,6.80
2018-08-11T10:33:09.288Z,7.17
2018-08-11T10:35:37.826Z,5.67
2018-08-11T10:38:06.289Z,6.72
2018-08-11T10:40:34.786Z,6.58
2018-08-11T10:43:03.306Z,5.92
2018-08-11T10:45:31.894Z,7.22
2018-08-11T10:48:00.381Z,7.03
2018-08-11T10:50:28.892Z,6.15
2018-08-11T10:52:57.376Z,3.92
2018-08-11T10:55:25.912Z,4.97
2018-08-11T10:57:54.421Z,2.45
2018-08-11T11:00:22.941Z,2.92
2018-08-11T11:02:51.466Z,3.02
2018-08-11T11:05:19.982Z,2.90
2018-08-11T11:07:48.465Z,2.35
2018-08-11T11:10:17.002Z,2.65
2018-08-11T11:12:45.452Z,2.60
2018-08-11T11:15:13.986Z,3.55
2018-08-11T11:17:42.460Z,2.98
2018-08-11T11:20:12.299Z,3.90
2018-08-11T11:22:41.531Z,4.80
2018-08-11T11:25:10.117Z,4.58
2018-08-11T11:27:39.306Z,4.47
2018-08-11T11:30:08.222Z,5.00
2018-08-11T11:32:37.730Z,4.85
2018-08-11T11:35:06.414Z,5.97
2018-08-11T11:37:35.018Z,5.12
2018-08-11T11:40:03.790Z,5.87
2018-08-11T11:42:32.382Z,5.22
2018-08-11T11:45:00.973Z,5.45
2018-08-11T11:47:29.631Z,5.28
2018-08-11T11:49:58.272Z,5.60
2018-08-11T11:52:27.113Z,5.62
2018-08-11T11:54:59.529Z,6.92
2018-08-11T11:57:28.822Z,6.08
2018-08-11T11:59:57.685Z,6.67
2018-08-11T12:02:26.425Z,6.90
2018-08-11T12:04:55.459Z,11.65
2018-08-11T12:07:27.047Z,8.18
2018-08-11T12:09:55.670Z,5.70
2018-08-11T12:12:24.400Z,5.03
2018-08-11T12:14:53.277Z,6.15
2018-08-11T12:17:22.894Z,4.90
2018-08-11T12:20:04.553Z,5.50
2018-08-11T12:22:33.130Z,5.90
2018-08-11T12:27:52.743Z,4.97
2018-08-11T12:30:21.395Z,4.72
2018-08-11T12:32:49.972Z,3.60
2018-08-11T12:35:18.552Z,4.53
2018-08-11T12:37:47.326Z,4.30
2018-08-11T12:40:15.988Z,3.92
2018-08-11T12:42:44.535Z,3.80
2018-08-11T12:45:13.016Z,3.80
2018-08-11T12:47:41.665Z,3.55
2018-08-11T12:50:10.378Z,3.15
2018-08-11T12:52:38.902Z,3.35
2018-08-11T12:55:07.469Z,2.90
2018-08-11T12:57:36.013Z,2.83
2018-08-11T13:00:05.420Z,2.87
2018-08-11T13:02:33.938Z,2.80
2018-08-11T13:05:02.468Z,2.70
2018-08-11T13:07:31.012Z,2.77
2018-08-11T13:10:00.168Z,2.17
2018-08-11T13:12:29.053Z,1.67
2018-08-11T13:14:57.789Z,1.77
2018-08-11T13:17:26.618Z,1.30
2018-08-11T13:19:55.168Z,1.10
2018-08-11T13:22:24.441Z,1.30
2018-08-11T13:24:53.324Z,1.22
2018-08-11T13:27:21.989Z,1.15
2018-08-11T13:29:51.135Z,1.30
2018-08-11T13:32:19.976Z,1.45
2018-08-11T13:34:48.512Z,1.10
2018-08-11T13:37:17.049Z,1.30
2018-08-11T13:39:50.733Z,1.00
2018-08-11T13:42:19.654Z,0.98
2018-08-11T13:44:48.187Z,1.20
2018-08-11T13:47:16.950Z,1.07
2018-08-11T13:49:45.507Z,1.17
2018-08-11T13:52:14.031Z,1.00
2018-08-11T13:54:42.533Z,1.02
2018-08-11T13:57:11.046Z,1.10
2018-08-11T13:59:39.517Z,1.10
2018-08-11T14:02:08.069Z,0.93
2018-08-11T14:04:36.545Z,0.98
2018-08-11T14:07:05.149Z,1.00
2018-08-11T14:09:33.617Z,1.67
2018-08-11T14:12:02.148Z,1.87
2018-08-11T14:14:30.878Z,1.30
2018-08-11T14:16:59.754Z,1.10
2018-08-11T14:19:28.333Z,1.20
2018-08-11T14:21:56.856Z,1.10
2018-08-11T14:24:25.379Z,1.07
2018-08-11T14:26:53.896Z,1.20
2018-08-11T14:29:22.385Z,1.10
2018-08-11T14:31:50.880Z,1.20
2018-08-11T14:34:19.448Z,1.92
2018-08-11T14:36:47.920Z,1.20
2018-08-11T14:39:16.505Z,1.40
2018-08-11T14:41:45.041Z,1.12
2018-08-11T14:44:13.583Z,1.60
2018-08-11T14:46:42.117Z,1.30
2018-08-11T14:49:10.580Z,1.10
2018-08-11T14:51:39.037Z,0.90
2018-08-11T14:54:07.585Z,1.12
2018-08-11T14:56:36.061Z,1.27
2018-08-11T14:59:04.561Z,1.30
2018-08-11T15:01:33.105Z,1.07
2018-08-11T15:04:01.585Z,1.10
2018-08-11T15:06:30.039Z,0.90
2018-08-11T15:08:58.607Z,0.88
2018-08-11T15:11:27.109Z,1.50
2018-08-11T15:13:55.617Z,1.98
2018-08-11T15:16:24.166Z,1.70
2018-08-11T15:18:52.599Z,1.50
2018-08-11T15:21:21.068Z,1.30
2018-08-11T15:23:49.574Z,1.00
2018-08-11T15:26:18.019Z,1.02
2018-08-11T15:28:46.525Z,1.10
2018-08-11T15:31:14.968Z,1.20
2018-08-11T15:33:43.505Z,1.85
2018-08-11T15:36:11.981Z,2.12
2018-08-11T15:38:40.469Z,1.02
2018-08-11T15:41:08.925Z,1.10
2018-08-11T15:43:37.405Z,1.25
2018-08-11T15:46:05.877Z,0.93
2018-08-11T15:48:34.457Z,1.20
2018-08-11T15:51:02.931Z,1.22
2018-08-11T15:53:31.436Z,1.25
2018-08-11T15:55:59.869Z,1.10
2018-08-11T15:58:28.345Z,1.20
2018-08-11T16:00:56.828Z,1.20
2018-08-11T16:03:25.337Z,1.57
2018-08-11T16:05:53.794Z,2.05
2018-08-11T16:08:22.301Z,2.17
2018-08-11T16:10:50.764Z,1.55
2018-08-11T16:13:19.225Z,1.22
2018-08-11T16:15:47.678Z,1.95
2018-08-11T16:18:16.197Z,1.40
2018-08-11T16:20:44.674Z,1.90
2018-08-11T16:23:13.113Z,2.37
2018-08-11T16:25:41.573Z,2.40
2018-08-11T16:28:10.029Z,1.20
2018-08-11T16:30:38.481Z,4.45
2018-08-11T16:33:07.113Z,3.10
2018-08-11T16:35:35.580Z,3.58
2018-08-11T16:38:04.017Z,3.05
2018-08-11T16:40:32.498Z,2.30
2018-08-11T16:43:00.957Z,2.20
2018-08-11T16:45:29.425Z,3.08
2018-08-11T16:47:57.934Z,1.80
2018-08-11T16:50:26.360Z,2.00
2018-08-11T16:52:54.828Z,2.50
2018-08-11T16:55:23.304Z,1.98
2018-08-11T16:57:51.760Z,1.60
2018-08-11T17:00:20.266Z,2.10
2018-08-11T17:02:48.712Z,1.80
2018-08-11T17:05:17.185Z,2.00
2018-08-11T17:07:45.613Z,6.35
2018-08-11T17:10:14.069Z,2.00
2018-08-11T17:12:42.508Z,1.50
2018-08-11T17:15:11.308Z,2.30
2018-08-11T17:17:39.801Z,2.02
2018-08-11T17:20:08.685Z,1.10
2018-08-11T17:22:37.152Z,1.30
2018-08-11T17:25:05.705Z,1.20
2018-08-11T17:27:34.416Z,1.25
2018-08-11T17:30:02.898Z,1.30
2018-08-11T17:32:31.401Z,1.00
2018-08-11T17:34:59.904Z,1.20
2018-08-11T17:37:28.372Z,1.60
2018-08-11T17:39:56.849Z,1.02
2018-08-11T17:42:25.384Z,3.17
2018-08-11T17:44:53.844Z,1.77
2018-08-11T17:47:22.285Z,1.40
2018-08-11T17:49:50.809Z,1.40
2018-08-11T17:52:19.286Z,1.70
2018-08-11T17:54:47.795Z,1.20
2018-08-11T17:57:16.197Z,1.35
2018-08-11T17:59:44.677Z,1.40
2018-08-11T18:02:13.124Z,1.52
2018-08-11T18:04:41.601Z,1.40
2018-08-11T18:07:10.073Z,1.57
2018-08-11T18:09:38.576Z,1.40
2018-08-11T18:12:07.393Z,1.43
2018-08-11T18:14:35.891Z,1.60
2018-08-11T18:17:04.556Z,2.60
2018-08-11T18:19:33.072Z,1.20
2018-08-11T18:22:01.704Z,1.40
2018-08-11T18:24:30.160Z,1.67
2018-08-11T18:26:58.650Z,1.40
2018-08-11T18:29:27.097Z,3.17
2018-08-11T18:31:55.597Z,1.57
2018-08-11T18:34:24.054Z,1.90
2018-08-11T18:36:52.533Z,2.10
2018-08-11T18:39:21.026Z,1.60
2018-08-11T18:41:49.480Z,2.23
2018-08-11T18:44:17.915Z,1.93
2018-08-11T18:46:46.380Z,2.17
2018-08-11T18:49:15.039Z,5.13
2018-08-11T18:51:43.759Z,4.23
2018-08-11T18:54:12.248Z,2.60
2018-08-11T18:56:40.768Z,1.80
2018-08-11T18:59:09.324Z,1.83
2018-08-11T19:01:37.788Z,1.87
2018-08-11T19:04:06.500Z,4.63
2018-08-11T19:06:35.041Z,5.43
2018-08-11T19:09:03.759Z,3.10
2018-08-11T19:11:32.252Z,4.30
2018-08-11T19:14:00.790Z,4.73
2018-08-11T19:16:29.293Z,4.90
2018-08-11T19:18:57.799Z,2.93
2018-08-11T19:21:26.276Z,6.33
2018-08-11T19:23:54.732Z,3.10
2018-08-11T19:26:23.297Z,1.80
2018-08-11T19:28:51.795Z,2.40
2018-08-11T19:31:20.412Z,2.30
2018-08-11T19:33:48.924Z,1.40
2018-08-11T19:36:17.408Z,1.77
2018-08-11T19:38:45.949Z,2.27
2018-08-11T19:41:14.519Z,2.30
2018-08-11T19:43:43.032Z,2.17
2018-08-11T19:46:11.671Z,2.60
2018-08-11T19:48:40.222Z,5.90
2018-08-11T19:51:08.786Z,5.63
2018-08-11T19:53:37.310Z,4.50
2018-08-11T19:56:05.872Z,7.50
2018-08-11T19:58:34.348Z,4.70
2018-08-11T20:01:02.959Z,6.67
2018-08-11T20:03:32.346Z,5.70
2018-08-11T20:06:00.844Z,4.60
2018-08-11T20:08:29.384Z,6.00
2018-08-11T20:10:57.929Z,4.00
2018-08-11T20:13:26.444Z,3.90
2018-08-11T20:15:55.039Z,6.07
2018-08-11T20:18:23.564Z,4.53
2018-08-11T20:20:52.091Z,4.27
2018-08-11T20:23:20.624Z,4.13
2018-08-11T20:25:49.157Z,2.63
2018-08-11T20:28:17.706Z,3.07
2018-08-11T20:30:46.365Z,2.70
2018-08-11T20:33:14.954Z,1.93
2018-08-11T20:35:44.167Z,2.10
2018-08-11T20:38:12.799Z,2.33
2018-08-11T20:40:41.301Z,2.33
2018-08-11T20:43:10.066Z,2.20
2018-08-11T20:45:38.618Z,2.27
2018-08-11T20:48:07.173Z,2.60
2018-08-11T20:50:35.706Z,2.10
2018-08-11T20:53:04.315Z,2.70
2018-08-11T20:55:32.806Z,4.70
2018-08-11T20:58:01.380Z,5.20
2018-08-11T21:00:29.899Z,4.77
2018-08-11T21:02:58.468Z,2.60
2018-08-11T21:05:26.996Z,4.97
2018-08-11T21:07:55.537Z,4.57
2018-08-11T21:10:24.567Z,3.30
2018-08-11T21:12:53.602Z,3.10
2018-08-11T21:15:22.202Z,2.30
2018-08-11T21:17:50.757Z,2.67
2018-08-11T21:20:19.243Z,3.20
2018-08-11T21:22:47.784Z,2.60
2018-08-11T21:25:16.364Z,4.93
2018-08-11T21:27:44.925Z,6.27
2018-08-11T21:30:14.814Z,4.10
2018-08-11T21:32:43.580Z,4.60
2018-08-11T21:35:12.315Z,7.27
2018-08-11T21:37:40.849Z,3.67
2018-08-11T21:40:12.754Z,5.60
2018-08-11T21:42:41.717Z,3.07
2018-08-11T21:45:10.546Z,5.23
2018-08-11T21:47:39.777Z,5.33
2018-08-11T21:50:08.866Z,2.77
2018-08-11T21:52:38.046Z,4.07
2018-08-11T21:55:07.202Z,2.50
2018-08-11T21:57:36.480Z,4.67
2018-08-11T22:00:14.893Z,4.53
2018-08-11T22:02:43.529Z,3.60
2018-08-11T22:05:12.055Z,3.07
2018-08-11T22:07:40.575Z,2.23
2018-08-11T22:10:09.133Z,2.27
2018-08-11T22:12:37.669Z,4.80
2018-08-11T22:15:06.226Z,10.57
2018-08-11T22:17:34.741Z,5.03
2018-08-11T22:20:03.297Z,2.90
2018-08-11T22:22:31.881Z,4.30
2018-08-11T22:25:00.358Z,7.50
2018-08-11T22:27:28.909Z,8.63
2018-08-11T22:29:57.486Z,9.00
2018-08-11T22:32:27.025Z,4.17
2018-08-11T22:34:55.556Z,6.40
2018-08-11T22:37:24.100Z,6.83
2018-08-11T22:39:52.628Z,5.77
2018-08-11T22:42:21.154Z,4.20
2018-08-11T22:44:49.685Z,4.20
2018-08-11T22:47:18.271Z,3.03
2018-08-11T22:49:46.734Z,3.20
2018-08-11T22:52:15.385Z,3.00
2018-08-11T22:54:44.077Z,3.23
2018-08-11T22:57:12.857Z,2.97
2018-08-11T22:59:41.687Z,3.40
2018-08-11T23:02:10.512Z,3.43
2018-08-11T23:04:39.297Z,2.60
2018-08-11T23:07:08.234Z,3.10
2018-08-11T23:09:37.278Z,3.13
2018-08-11T23:12:06.116Z,2.83
2018-08-11T23:14:34.900Z,3.10
2018-08-11T23:17:03.714Z,3.00
2018-08-11T23:19:32.485Z,2.63
2018-08-11T23:22:01.162Z,2.47
2018-08-11T23:24:29.884Z,2.60
2018-08-11T23:26:58.389Z,2.60
2018-08-11T23:29:27.808Z,2.70
2018-08-11T23:31:56.693Z,2.43
2018-08-11T23:34:25.181Z,2.70
2018-08-11T23:36:53.877Z,2.40
2018-08-11T23:39:22.496Z,2.40
2018-08-11T23:41:51.241Z,2.50
2018-08-11T23:44:20.096Z,2.40
2018-08-11T23:46:48.930Z,2.77
2018-08-11T23:49:17.760Z,2.63
2018-08-11T23:51:46.329Z,2.60
2018-08-11T23:54:14.909Z,2.50
2018-08-11T23:56:43.590Z,2.33
2018-08-11T23:59:12.134Z,2.60
